sensor_id;sensor_type;location;lat;lon;timestamp;temperature;humidity
7378;DHT22;3730;50.856;12.776;2024-03-02T15:07:00;14.20;1.00
7378;DHT22;3730;50.856;12.776;2024-03-02T15:11:52;14.10;1.00
7378;DHT22;3730;50.856;12.776;2024-03-02T15:14:18;14.00;1.00
7378;DHT22;3730;50.856;12.776;2024-03-02T15:16:43;14.00;1.00
7378;DHT22;3730;50.856;12.776;2024-03-02T15:19:09;14.00;1.00
7378;DHT22;3730;50.856;12.776;2024-03-02T15:21:35;14.60;1.00
7378;DHT22;3730;50.856;12.776;2024-03-02T15:24:00;13.80;1.00
7378;DHT22;3730;50.856;12.776;2024-03-02T15:26:26;14.10;1.00
7378;DHT22;3730;50.856;12.776;2024-03-02T15:28:52;13.70;1.00
7378;DHT22;3730;50.856;12.776;2024-03-02T15:31:18;13.80;1.00
7378;DHT22;3730;50.856;12.776;2024-03-02T15:33:44;13.80;1.00
7378;DHT22;3730;50.856;12.776;2024-03-02T15:36:10;13.70;1.00
7378;DHT22;3730;50.856;12.776;2024-03-02T15:38:35;13.50;1.00
7378;DHT22;3730;50.856;12.776;2024-03-02T15:41:03;13.80;1.00
7378;DHT22;3730;50.856;12.776;2024-03-02T15:43:29;13.40;1.00
7378;DHT22;3730;50.856;12.776;2024-03-02T18:36:57;10.30;1.00
7378;DHT22;3730;50.856;12.776;2024-03-02T18:39:23;10.30;1.00
7378;DHT22;3730;50.856;12.776;2024-03-02T18:41:49;10.00;1.00
7378;DHT22;3730;50.856;12.776;2024-03-02T18:44:15;10.20;1.00
7378;DHT22;3730;50.856;12.776;2024-03-02T18:46:40;9.90;1.00
7378;DHT22;3730;50.856;12.776;2024-03-02T18:49:06;10.20;1.00
7378;DHT22;3730;50.856;12.776;2024-03-02T18:51:31;10.20;1.00
7378;DHT22;3730;50.856;12.776;2024-03-02T18:56:23;9.90;1.00
7378;DHT22;3730;50.856;12.776;2024-03-02T19:01:15;10.00;1.00
7378;DHT22;3730;50.856;12.776;2024-03-02T19:06:07;9.90;1.00
7378;DHT22;3730;50.856;12.776;2024-03-02T19:08:38;9.90;1.00
7378;DHT22;3730;50.856;12.776;2024-03-02T19:20:48;10.00;1.00
7378;DHT22;3730;50.856;12.776;2024-03-02T19:23:13;9.80;1.00
7378;DHT22;3730;50.856;12.776;2024-03-02T19:25:39;9.70;1.00
7378;DHT22;3730;50.856;12.776;2024-03-02T19:28:05;9.80;1.00
7378;DHT22;3730;50.856;12.776;2024-03-02T19:30:31;9.70;1.00
7378;DHT22;3730;50.856;12.776;2024-03-02T19:37:48;9.80;1.00
7378;DHT22;3730;50.856;12.776;2024-03-02T19:40:15;9.80;1.00
7378;DHT22;3730;50.856;12.776;2024-03-02T19:45:07;9.60;1.00
7378;DHT22;3730;50.856;12.776;2024-03-02T19:47:33;9.70;1.00
7378;DHT22;3730;50.856;12.776;2024-03-02T19:49:59;9.60;1.00
7378;DHT22;3730;50.856;12.776;2024-03-02T19:52:24;9.70;1.00
7378;DHT22;3730;50.856;12.776;2024-03-02T19:54:50;9.80;1.00
7378;DHT22;3730;50.856;12.776;2024-03-02T19:57:16;9.70;1.00
7378;DHT22;3730;50.856;12.776;2024-03-02T19:59:42;9.70;1.00
7378;DHT22;3730;50.856;12.776;2024-03-02T20:02:08;9.70;1.00
7378;DHT22;3730;50.856;12.776;2024-03-02T20:07:04;9.60;1.00
7378;DHT22;3730;50.856;12.776;2024-03-02T20:09:29;9.50;1.00
7378;DHT22;3730;50.856;12.776;2024-03-02T20:14:23;9.80;1.00
7378;DHT22;3730;50.856;12.776;2024-03-02T20:19:16;9.50;1.00
7378;DHT22;3730;50.856;12.776;2024-03-02T20:21:43;9.50;1.00
7378;DHT22;3730;50.856;12.776;2024-03-02T20:24:09;9.50;1.00
7378;DHT22;3730;50.856;12.776;2024-03-02T20:26:37;9.60;1.00
7378;DHT22;3730;50.856;12.776;2024-03-02T20:29:02;9.60;1.00
7378;DHT22;3730;50.856;12.776;2024-03-02T20:31:29;9.60;1.00
7378;DHT22;3730;50.856;12.776;2024-03-02T20:33:54;9.50;1.00
7378;DHT22;3730;50.856;12.776;2024-03-02T20:38:46;9.40;1.00
7378;DHT22;3730;50.856;12.776;2024-03-02T20:41:17;9.50;1.00
7378;DHT22;3730;50.856;12.776;2024-03-02T20:43:44;9.30;1.00
7378;DHT22;3730;50.856;12.776;2024-03-02T20:46:10;9.50;1.00
7378;DHT22;3730;50.856;12.776;2024-03-02T20:48:36;9.40;1.00
7378;DHT22;3730;50.856;12.776;2024-03-02T20:51:02;9.50;1.00
7378;DHT22;3730;50.856;12.776;2024-03-02T20:53:28;9.90;1.00
7378;DHT22;3730;50.856;12.776;2024-03-02T20:55:54;9.40;1.00
7378;DHT22;3730;50.856;12.776;2024-03-02T20:58:19;9.50;1.00
7378;DHT22;3730;50.856;12.776;2024-03-02T21:00:45;9.50;1.00
7378;DHT22;3730;50.856;12.776;2024-03-02T21:03:10;9.40;1.00
7378;DHT22;3730;50.856;12.776;2024-03-02T21:05:37;9.40;1.00
7378;DHT22;3730;50.856;12.776;2024-03-02T21:08:02;9.80;1.00
7378;DHT22;3730;50.856;12.776;2024-03-02T21:10:28;9.30;1.00
7378;DHT22;3730;50.856;12.776;2024-03-02T21:12:54;9.40;1.00
7378;DHT22;3730;50.856;12.776;2024-03-02T21:15:20;9.30;1.00
7378;DHT22;3730;50.856;12.776;2024-03-02T21:17:45;9.50;1.00
7378;DHT22;3730;50.856;12.776;2024-03-02T21:20:11;9.30;1.00
7378;DHT22;3730;50.856;12.776;2024-03-02T21:22:38;9.20;1.00
7378;DHT22;3730;50.856;12.776;2024-03-02T21:25:06;9.30;1.00
7378;DHT22;3730;50.856;12.776;2024-03-02T21:27:40;9.40;1.00
7378;DHT22;3730;50.856;12.776;2024-03-02T21:30:06;9.30;1.00
7378;DHT22;3730;50.856;12.776;2024-03-02T21:32:34;9.60;1.00
7378;DHT22;3730;50.856;12.776;2024-03-02T21:35:01;9.20;1.00
7378;DHT22;3730;50.856;12.776;2024-03-02T21:37:26;9.30;1.00
7378;DHT22;3730;50.856;12.776;2024-03-02T21:39:55;9.30;1.00
7378;DHT22;3730;50.856;12.776;2024-03-02T21:42:23;9.30;1.00
7378;DHT22;3730;50.856;12.776;2024-03-02T21:44:49;9.30;1.00
7378;DHT22;3730;50.856;12.776;2024-03-02T21:47:15;9.40;1.00
7378;DHT22;3730;50.856;12.776;2024-03-02T21:49:42;9.30;1.00
7378;DHT22;3730;50.856;12.776;2024-03-02T21:52:08;9.20;1.00
7378;DHT22;3730;50.856;12.776;2024-03-02T21:54:33;9.10;1.00
7378;DHT22;3730;50.856;12.776;2024-03-02T21:56:59;9.10;1.00
